Time;durP1;ratioP1;P1;durP2;ratioP2;P2;SDS_P1;SDS_P2;PMS_P1;PMS_P2;Temp;Humidity;BMP_temperature;BMP_pressure;BME280_temperature;BME280_humidity;BME280_pressure;Samples;Min_cycle;Max_cycle;Signal;HPM_P1;HPM_P2
2022/10/28 00:04:35;;;;;;;27.40;18.13;;;12.90;99.90;;;;;;9959857;29;20616;-96
2022/10/28 00:09:38;;;;;;;25.07;18.10;;;12.90;99.90;;;;;;9968354;29;20211;-96
2022/10/28 00:14:40;;;;;;;23.93;18.67;;;12.80;99.90;;;;;;9995180;29;20691;-96
2022/10/28 00:19:43;;;;;;;26.17;19.00;;;12.30;99.90;;;;;;9983101;29;20633;-96
2022/10/28 00:24:45;;;;;;;22.33;16.50;;;12.40;99.90;;;;;;9959550;29;20241;-96
2022/10/28 00:29:48;;;;;;;28.20;18.57;;;13.10;99.90;;;;;;9976899;29;20203;-96
2022/10/28 00:34:50;;;;;;;19.87;14.87;;;13.10;99.90;;;;;;9966920;29;20335;-96
2022/10/28 00:39:53;;;;;;;25.20;17.50;;;12.90;99.90;;;;;;9952528;29;20228;-96
2022/10/28 00:45:00;;;;;;;21.23;14.77;;;12.70;99.90;;;;;;9967187;29;20230;-96
2022/10/28 00:50:27;;;;;;;20.70;16.80;;;13.00;99.90;;;;;;9972926;29;20206;-96
2022/10/28 00:55:31;;;;;;;24.57;17.10;;;13.00;99.90;;;;;;9999156;29;20579;-96
2022/10/28 01:00:34;;;;;;;28.13;16.83;;;13.00;99.90;;;;;;9989092;29;20590;-96
2022/10/28 01:05:41;;;;;;;24.83;18.57;;;12.90;99.90;;;;;;9946875;29;20633;-96
2022/10/28 01:11:08;;;;;;;19.40;14.27;;;12.30;99.90;;;;;;9952623;29;20215;-96
2022/10/28 01:16:26;;;;;;;30.53;18.40;;;13.00;99.90;;;;;;9951324;29;20203;-96
2022/10/28 01:22:00;;;;;;;31.40;19.17;;;11.50;99.90;;;;;;9985341;29;20230;-96
2022/10/28 01:27:44;;;;;;;31.47;20.80;;;11.70;99.90;;;;;;9972786;29;20268;-96
2022/10/28 01:33:02;;;;;;;27.60;18.17;;;12.30;99.90;;;;;;9839387;30;20338;-96
2022/10/28 01:38:33;;;;;;;30.27;21.10;;;12.80;99.90;;;;;;9822605;30;20663;-96
2022/10/28 01:43:53;;;;;;;38.60;21.27;;;12.40;99.90;;;;;;9853401;30;20293;-96
2022/10/28 01:49:01;;;;;;;37.13;23.70;;;13.00;99.90;;;;;;9845532;30;20254;-96
2022/10/28 01:54:07;;;;;;;22.63;16.17;;;12.70;99.90;;;;;;9858944;30;20573;-96
2022/10/28 01:59:13;;;;;;;28.07;19.17;;;12.50;99.90;;;;;;9860299;30;20213;-96
2022/10/28 02:04:16;;;;;;;26.33;20.00;;;12.90;99.90;;;;;;9867525;30;20273;-96
2022/10/28 02:09:23;;;;;;;34.77;25.97;;;13.20;99.90;;;;;;9928606;29;20749;-96
2022/10/28 02:14:31;;;;;;;25.40;19.93;;;12.20;99.90;;;;;;9973682;29;20212;-96
2022/10/28 02:20:03;;;;;;;37.10;24.30;;;12.70;99.90;;;;;;9972809;29;20570;-96
2022/10/28 02:25:08;;;;;;;33.77;25.87;;;12.50;99.90;;;;;;9956048;29;20216;-96
2022/10/28 02:30:24;;;;;;;36.23;26.90;;;12.30;99.90;;;;;;9950583;29;20216;-96
2022/10/28 02:35:37;;;;;;;32.40;23.77;;;12.50;99.90;;;;;;9949486;29;20572;-96
2022/10/28 02:40:44;;;;;;;35.20;24.93;;;12.90;99.90;;;;;;9964405;29;20234;-96
2022/10/28 02:45:51;;;;;;;29.37;24.33;;;12.90;99.90;;;;;;9979112;29;20212;-96
2022/10/28 02:50:59;;;;;;;34.33;25.03;;;12.60;99.90;;;;;;9950410;29;20207;-96
2022/10/28 02:56:04;;;;;;;27.07;20.83;;;12.80;99.90;;;;;;9965814;29;20706;-96
2022/10/28 03:01:07;;;;;;;32.87;21.17;;;12.60;99.90;;;;;;9982436;29;20222;-96
2022/10/28 03:06:09;;;;;;;30.10;22.13;;;12.70;99.90;;;;;;9949755;29;20204;-95
2022/10/28 03:11:12;;;;;;;36.27;25.30;;;12.80;99.90;;;;;;9941443;29;20269;-96
2022/10/28 03:16:14;;;;;;;36.57;26.43;;;13.00;99.90;;;;;;9924922;29;20204;-96
2022/10/28 03:21:17;;;;;;;35.20;27.37;;;12.90;99.90;;;;;;9941211;29;20271;-95
2022/10/28 03:26:19;;;;;;;39.00;26.47;;;12.50;99.90;;;;;;9926512;29;20234;-96
2022/10/28 03:31:21;;;;;;;30.93;22.73;;;12.90;99.90;;;;;;9941902;29;20673;-96
2022/10/28 03:36:24;;;;;;;30.17;22.77;;;12.90;99.90;;;;;;9944740;29;20265;-96
2022/10/28 03:41:26;;;;;;;31.20;20.97;;;12.90;99.90;;;;;;9929926;29;20274;-96
2022/10/28 03:46:29;;;;;;;37.30;26.23;;;13.10;99.90;;;;;;9986069;29;20207;-96
2022/10/28 03:51:36;;;;;;;37.07;27.90;;;12.90;99.90;;;;;;9959845;29;20211;-96
2022/10/28 03:56:39;;;;;;;35.83;24.20;;;12.70;99.90;;;;;;9946953;29;20257;-95
2022/10/28 04:01:41;;;;;;;32.83;21.43;;;12.90;99.90;;;;;;9959313;29;20219;-96
2022/10/28 04:06:44;;;;;;;15.03;11.57;;;12.90;99.90;;;;;;9949950;29;20273;-96
2022/10/28 04:11:48;;;;;;;30.20;23.63;;;13.40;99.90;;;;;;9953181;29;20247;-95
2022/10/28 04:16:50;;;;;;;31.37;23.37;;;13.60;99.90;;;;;;9982085;29;20195;-95
2022/10/28 04:21:53;;;;;;;31.13;23.17;;;13.30;99.90;;;;;;9955206;29;20316;-96
2022/10/28 04:26:56;;;;;;;16.70;14.43;;;13.20;99.90;;;;;;9944985;29;20269;-94
2022/10/28 04:31:58;;;;;;;32.17;24.13;;;13.10;99.90;;;;;;9950330;29;20235;-96
2022/10/28 04:37:00;;;;;;;35.53;25.53;;;13.30;99.90;;;;;;9948759;29;20277;-96
2022/10/28 04:42:03;;;;;;;26.90;19.30;;;14.60;99.90;;;;;;9969794;29;20235;-96
2022/10/28 04:47:05;;;;;;;25.57;21.57;;;14.10;99.90;;;;;;9969583;29;20200;-96
2022/10/28 04:52:08;;;;;;;19.53;15.43;;;14.20;99.90;;;;;;9969328;29;20207;-96
2022/10/28 04:57:16;;;;;;;26.90;18.30;;;14.30;99.90;;;;;;9982056;29;20256;-95
2022/10/28 05:02:20;;;;;;;31.60;23.03;;;14.60;99.90;;;;;;9977987;29;20316;-96
2022/10/28 05:07:23;;;;;;;38.37;25.37;;;14.30;99.90;;;;;;9976063;29;20690;-96
2022/10/28 05:12:25;;;;;;;30.30;24.67;;;13.70;99.90;;;;;;9974674;29;20247;-96
2022/10/28 05:17:28;;;;;;;32.00;22.93;;;13.70;99.90;;;;;;9964317;29;20560;-95
2022/10/28 05:22:30;;;;;;;30.97;25.37;;;13.20;99.90;;;;;;9965532;29;20724;-95
2022/10/28 05:27:33;;;;;;;27.60;22.47;;;13.50;99.90;;;;;;9961590;29;20207;-95
2022/10/28 05:32:36;;;;;;;22.37;18.00;;;13.40;99.90;;;;;;9949511;29;20240;-95
2022/10/28 05:37:38;;;;;;;34.33;24.97;;;12.80;99.90;;;;;;9978648;29;20239;-94
2022/10/28 05:42:45;;;;;;;23.10;18.30;;;12.60;99.90;;;;;;9956609;29;20331;-95
2022/10/28 05:47:48;;;;;;;10.50;8.80;;;12.80;99.90;;;;;;9978345;29;20283;-96
2022/10/28 05:52:52;;;;;;;30.17;22.77;;;14.00;99.90;;;;;;9981471;29;20207;-93
2022/10/28 05:57:55;;;;;;;34.13;24.90;;;15.10;99.90;;;;;;9973806;29;20211;-95
2022/10/28 06:03:09;;;;;;;27.47;23.20;;;14.90;99.90;;;;;;9978154;29;20252;-95
2022/10/28 06:08:12;;;;;;;27.63;20.90;;;13.50;99.90;;;;;;9979565;29;20242;-96
2022/10/28 06:13:15;;;;;;;31.63;23.23;;;12.90;99.90;;;;;;9980223;29;20209;-95
2022/10/28 06:18:18;;;;;;;28.67;22.00;;;12.70;99.90;;;;;;9981877;29;20215;-94
2022/10/28 06:23:24;;;;;;;31.17;21.87;;;12.30;99.90;;;;;;9966727;29;20287;-94
2022/10/28 06:28:27;;;;;;;22.93;17.77;;;12.20;99.90;;;;;;9979411;29;20240;-94
2022/10/28 06:33:31;;;;;;;34.47;23.10;;;12.90;99.90;;;;;;9955442;29;20211;-94
2022/10/28 06:38:34;;;;;;;39.77;25.10;;;12.80;99.90;;;;;;9933055;29;20225;-95
2022/10/28 06:43:38;;;;;;;30.07;21.13;;;12.60;99.90;;;;;;9951182;29;20272;-95
2022/10/28 06:48:41;;;;;;;28.53;21.90;;;12.40;99.90;;;;;;9964271;29;20215;-96
2022/10/28 06:53:51;;;;;;;24.67;18.87;;;12.50;99.90;;;;;;9981471;29;20215;-95
2022/10/28 06:58:54;;;;;;;30.53;24.10;;;13.00;99.90;;;;;;9978922;29;20223;-95
2022/10/28 07:03:57;;;;;;;32.13;22.50;;;13.00;99.90;;;;;;9978705;29;20713;-95
2022/10/28 07:09:01;;;;;;;30.73;22.70;;;13.10;99.90;;;;;;9964164;29;20224;-94
2022/10/28 07:14:03;;;;;;;22.90;16.20;;;13.20;99.90;;;;;;9947879;29;20253;-96
2022/10/28 07:19:06;;;;;;;34.07;24.07;;;13.80;99.90;;;;;;9948678;29;20200;-93
2022/10/28 07:24:09;;;;;;;23.80;17.43;;;14.20;99.90;;;;;;9949232;29;20228;-94
2022/10/28 07:29:12;;;;;;;33.70;24.30;;;14.40;99.90;;;;;;9964168;29;20280;-93
2022/10/28 07:34:14;;;;;;;24.60;19.10;;;14.40;99.90;;;;;;9930622;29;20276;-94
2022/10/28 07:39:17;;;;;;;24.40;16.27;;;14.10;99.90;;;;;;9939307;29;20695;-96
2022/10/28 07:44:20;;;;;;;23.07;17.27;;;14.70;99.90;;;;;;9934734;29;20247;-96
2022/10/28 07:49:25;;;;;;;32.53;23.33;;;15.20;99.90;;;;;;9954777;29;20209;-95
2022/10/28 07:54:30;;;;;;;25.40;19.83;;;14.80;99.90;;;;;;9964917;29;20662;-95
2022/10/28 07:59:36;;;;;;;24.20;18.17;;;15.40;99.90;;;;;;9956078;29;20219;-96
2022/10/28 08:04:39;;;;;;;36.27;25.63;;;15.10;99.90;;;;;;9977580;29;20256;-96
2022/10/28 08:09:46;;;;;;;32.10;20.47;;;14.80;99.90;;;;;;10012877;29;20243;-96
2022/10/28 08:15:20;;;;;;;28.50;21.40;;;15.00;99.90;;;;;;10014333;29;20223;-96
2022/10/28 08:20:30;;;;;;;34.83;24.40;;;14.60;99.90;;;;;;10001150;29;20207;-96
2022/10/28 08:25:34;;;;;;;29.60;19.07;;;15.00;99.90;;;;;;10014896;29;20242;-96
2022/10/28 08:30:40;;;;;;;30.13;21.23;;;15.30;99.90;;;;;;9991869;29;20219;-95
2022/10/28 08:36:14;;;;;;;26.50;18.47;;;15.30;99.90;;;;;;9998924;29;20259;-96
2022/10/28 08:41:43;;;;;;;23.43;15.97;;;15.30;99.90;;;;;;10032348;29;20808;-83
2022/10/28 08:47:00;;;;;;;15.37;13.40;;;15.50;99.90;;;;;;10049865;29;20242;-86
2022/10/28 08:52:24;;;;;;;24.13;17.27;;;15.90;99.90;;;;;;10053432;29;20642;-83
2022/10/28 08:57:51;;;;;;;19.30;16.17;;;15.90;99.90;;;;;;10036949;29;20247;-85
2022/10/28 09:03:12;;;;;;;22.83;16.93;;;16.00;99.90;;;;;;10044067;29;20270;-86
2022/10/28 09:08:21;;;;;;;24.70;17.73;;;16.00;99.90;;;;;;10048528;29;20266;-84
2022/10/28 09:13:24;;;;;;;23.67;17.77;;;16.20;99.90;;;;;;10056451;29;20297;-85
2022/10/28 09:18:36;;;;;;;28.23;19.17;;;16.30;99.90;;;;;;10034222;29;20262;-85
2022/10/28 09:24:12;;;;;;;24.13;15.53;;;16.30;99.90;;;;;;10048082;29;20317;-85
2022/10/28 09:29:14;;;;;;;20.73;13.53;;;16.40;99.90;;;;;;10028848;29;20262;-84
2022/10/28 09:34:28;;;;;;;20.33;14.87;;;16.50;99.90;;;;;;10036026;29;20253;-84
2022/10/28 09:39:42;;;;;;;15.80;10.37;;;16.60;99.90;;;;;;10053261;29;20726;-83
2022/10/28 09:44:53;;;;;;;13.63;11.03;;;17.20;99.90;;;;;;10034776;29;20319;-83
2022/10/28 09:50:00;;;;;;;17.37;12.33;;;17.50;99.90;;;;;;10037675;29;20233;-83
2022/10/28 09:55:28;;;;;;;15.40;11.33;;;17.70;99.90;;;;;;10035123;29;20310;-83
2022/10/28 10:00:31;;;;;;;17.77;13.33;;;17.70;99.90;;;;;;10032333;29;20241;-84
2022/10/28 10:05:39;;;;;;;19.83;15.03;;;17.40;99.90;;;;;;10035341;29;20269;-83
2022/10/28 10:10:55;;;;;;;18.10;13.60;;;17.40;99.90;;;;;;10043084;29;20243;-84
2022/10/28 10:16:03;;;;;;;14.07;10.37;;;17.30;99.90;;;;;;10050712;29;20295;-84
2022/10/28 10:21:06;;;;;;;20.53;11.73;;;17.40;99.90;;;;;;10049608;29;20683;-84
2022/10/28 10:26:12;;;;;;;15.93;12.53;;;17.50;99.90;;;;;;10049026;29;20302;-83
2022/10/28 10:31:28;;;;;;;13.07;9.80;;;17.50;99.90;;;;;;10018323;29;20628;-85
2022/10/28 10:36:32;;;;;;;17.57;10.73;;;17.70;99.90;;;;;;10032747;29;20305;-85
2022/10/28 10:41:43;;;;;;;12.47;10.23;;;17.80;99.90;;;;;;10033165;29;20303;-84
2022/10/28 10:47:04;;;;;;;11.40;9.63;;;17.90;99.90;;;;;;10015377;29;20321;-84
2022/10/28 10:52:20;;;;;;;13.87;10.77;;;17.70;99.90;;;;;;10047720;29;20269;-84
2022/10/28 10:57:24;;;;;;;14.77;10.50;;;17.80;99.90;;;;;;10041033;29;20240;-84
2022/10/28 11:02:40;;;;;;;12.30;9.20;;;17.60;99.90;;;;;;10041073;29;20315;-83
2022/10/28 11:07:47;;;;;;;15.27;10.87;;;17.60;99.90;;;;;;10043464;29;20282;-82
2022/10/28 11:12:55;;;;;;;17.33;10.97;;;17.80;99.90;;;;;;10040368;29;20298;-83
2022/10/28 11:17:58;;;;;;;13.00;10.40;;;17.80;99.90;;;;;;10057366;29;20245;-83
2022/10/28 11:23:12;;;;;;;14.40;9.33;;;17.80;99.90;;;;;;10054626;29;20696;-84
2022/10/28 11:28:37;;;;;;;11.03;9.23;;;17.90;99.90;;;;;;10054900;29;20245;-84
2022/10/28 11:34:03;;;;;;;14.90;10.27;;;18.00;99.90;;;;;;10018023;29;20238;-84
2022/10/28 11:39:17;;;;;;;19.37;10.60;;;18.10;99.90;;;;;;10056432;29;20311;-86
2022/10/28 11:44:46;;;;;;;15.07;8.90;;;18.00;99.90;;;;;;10055283;29;20249;-86
2022/10/28 11:50:12;;;;;;;10.50;8.87;;;18.20;99.90;;;;;;10053777;29;20264;-87
2022/10/28 11:55:32;;;;;;;19.30;10.03;;;18.30;99.90;;;;;;10051563;29;20285;-86
2022/10/28 12:00:59;;;;;;;10.33;8.97;;;18.30;99.90;;;;;;10051479;29;20280;-87
2022/10/28 12:06:16;;;;;;;14.67;9.83;;;18.50;99.90;;;;;;10050803;29;20249;-86
2022/10/28 12:11:48;;;;;;;16.90;9.20;;;18.70;99.90;;;;;;10049720;29;20237;-85
2022/10/28 12:17:29;;;;;;;17.10;9.77;;;19.10;99.90;;;;;;10053731;29;20281;-85
2022/10/28 12:22:54;;;;;;;12.13;8.80;;;19.20;99.90;;;;;;10039175;29;20278;-85
2022/10/28 12:28:02;;;;;;;13.60;9.13;;;19.10;99.90;;;;;;10055318;29;20684;-84
2022/10/28 12:33:39;;;;;;;20.90;9.07;;;19.00;99.90;;;;;;10054844;29;20654;-84
2022/10/28 12:38:48;;;;;;;11.97;8.23;;;19.00;99.90;;;;;;10054490;29;20259;-84
2022/10/28 12:44:01;;;;;;;18.90;9.40;;;19.00;99.90;;;;;;10022532;29;20270;-84
2022/10/28 12:49:11;;;;;;;15.47;9.50;;;18.80;99.90;;;;;;10038827;29;20231;-86
2022/10/28 12:54:29;;;;;;;18.87;9.80;;;18.60;99.90;;;;;;10055096;29;20237;-85
2022/10/28 12:59:37;;;;;;;14.63;9.57;;;18.60;99.90;;;;;;10037797;29;20257;-84
2022/10/28 13:04:40;;;;;;;18.90;9.80;;;18.60;99.90;;;;;;10038117;29;20291;-84
2022/10/28 13:10:04;;;;;;;14.20;8.50;;;18.70;99.90;;;;;;10053749;29;20229;-84
2022/10/28 13:15:21;;;;;;;22.97;9.87;;;18.60;99.90;;;;;;10036993;29;20308;-84
2022/10/28 13:20:37;;;;;;;13.67;9.57;;;18.70;99.90;;;;;;10051457;29;20671;-83
2022/10/28 13:25:46;;;;;;;16.30;9.20;;;18.80;99.90;;;;;;10049862;29;20309;-83
2022/10/28 13:30:58;;;;;;;16.70;8.57;;;18.80;99.90;;;;;;10035314;29;20301;-83
2022/10/28 13:36:50;;;;;;;13.53;8.37;;;18.80;99.90;;;;;;10053489;29;20291;-83
2022/10/28 13:42:13;;;;;;;17.47;9.07;;;18.70;99.90;;;;;;10035937;29;20294;-83
2022/10/28 13:47:16;;;;;;;19.80;9.33;;;18.70;99.90;;;;;;10036774;29;20249;-84
2022/10/28 13:52:20;;;;;;;17.63;9.10;;;18.80;99.90;;;;;;10051939;29;20235;-83
2022/10/28 13:57:47;;;;;;;13.60;9.10;;;18.30;99.90;;;;;;10053228;29;20241;-83
2022/10/28 14:02:54;;;;;;;25.47;10.80;;;18.20;99.90;;;;;;10045297;29;20269;-83
2022/10/28 14:08:03;;;;;;;17.57;10.63;;;18.10;99.90;;;;;;10035863;29;20234;-84
2022/10/28 14:13:15;;;;;;;11.67;9.47;;;18.00;99.90;;;;;;10050242;29;20253;-83
2022/10/28 14:18:23;;;;;;;26.83;12.50;;;18.50;99.90;;;;;;10042344;29;20846;-84
2022/10/28 14:24:06;;;;;;;16.47;10.33;;;18.40;99.90;;;;;;10052041;29;20257;-84
2022/10/28 14:29:28;;;;;;;21.43;10.60;;;18.20;99.90;;;;;;10052334;29;20237;-84
2022/10/28 14:34:40;;;;;;;14.53;9.83;;;17.90;99.90;;;;;;10051724;29;20246;-85
2022/10/28 14:40:16;;;;;;;26.27;12.77;;;17.90;99.90;;;;;;10036518;29;20273;-84
2022/10/28 14:45:39;;;;;;;24.00;13.33;;;17.70;99.90;;;;;;10036974;29;20234;-84
2022/10/28 14:50:47;;;;;;;27.50;13.73;;;17.50;99.90;;;;;;10052039;29;20210;-85
2022/10/28 14:56:15;;;;;;;33.47;16.40;;;17.00;99.90;;;;;;10052016;29;20274;-84
2022/10/28 15:01:26;;;;;;;24.13;14.63;;;16.80;99.90;;;;;;10027862;29;20819;-85
2022/10/28 15:06:40;;;;;;;32.57;13.83;;;17.00;99.90;;;;;;10038288;29;20238;-85
2022/10/28 15:11:46;;;;;;;20.93;11.70;;;16.80;99.90;;;;;;10055150;29;20266;-84
2022/10/28 15:16:50;;;;;;;22.87;12.13;;;16.80;99.90;;;;;;10040073;29;20206;-84
2022/10/28 15:27:30;;;;;;;27.83;11.77;;;16.50;99.90;;;;;;4814651;27;20322;-81
2022/10/28 15:32:34;;;;;;;20.17;12.03;;;16.10;99.90;;;;;;10056053;29;20265;-84
2022/10/28 15:37:38;;;;;;;35.57;13.80;;;15.70;99.90;;;;;;10036230;29;20209;-83
2022/10/28 15:42:50;;;;;;;26.27;11.80;;;15.50;99.90;;;;;;10035355;29;20210;-84
2022/10/28 15:47:54;;;;;;;15.03;11.10;;;15.30;99.90;;;;;;9708049;29;10000032;-82
2022/10/28 15:53:07;;;;;;;14.07;10.67;;;15.60;99.90;;;;;;10057202;29;20242;-84
2022/10/28 15:58:09;;;;;;;12.33;10.70;;;16.20;99.90;;;;;;10022933;29;20214;-84
2022/10/28 16:03:44;;;;;;;18.13;12.33;;;16.90;99.90;;;;;;10034078;29;20287;-84
2022/10/28 16:08:47;;;;;;;15.77;11.20;;;17.20;99.90;;;;;;10023749;29;20237;-84
2022/10/28 16:13:50;;;;;;;28.67;12.97;;;17.50;99.90;;;;;;10056142;29;20245;-84
2022/10/28 16:19:08;;;;;;;20.60;11.77;;;17.60;99.90;;;;;;10056193;29;20299;-84
2022/10/28 16:24:12;;;;;;;21.77;12.17;;;17.00;99.90;;;;;;10056065;29;20711;-84
2022/10/28 16:29:14;;;;;;;24.50;13.57;;;16.60;99.90;;;;;;10023365;29;20273;-84
2022/10/28 16:34:17;;;;;;;21.90;14.53;;;16.10;99.90;;;;;;10039703;29;20256;-84
2022/10/28 16:39:19;;;;;;;25.37;17.47;;;15.50;99.90;;;;;;10023555;29;20714;-84
2022/10/28 16:44:25;;;;;;;33.17;16.90;;;15.30;99.90;;;;;;10054449;29;20265;-84
2022/10/28 16:49:28;;;;;;;25.30;15.30;;;15.50;99.90;;;;;;10054942;29;20238;-84
2022/10/28 16:54:30;;;;;;;44.63;17.47;;;15.30;99.90;;;;;;9993966;29;20245;-84
2022/10/28 16:59:33;;;;;;;32.37;19.33;;;15.00;99.90;;;;;;10001380;29;20253;-84
2022/10/28 17:04:35;;;;;;;25.53;16.07;;;14.00;99.90;;;;;;9654815;29;10000117;-84
2022/10/28 17:09:38;;;;;;;25.93;13.77;;;13.80;99.90;;;;;;10028042;29;20198;-84
2022/10/28 17:14:40;;;;;;;24.13;13.30;;;15.10;99.90;;;;;;10016397;29;20250;-83
2022/10/28 17:19:44;;;;;;;20.83;13.40;;;16.00;99.90;;;;;;10025496;29;20229;-83
2022/10/28 17:24:47;;;;;;;25.57;13.33;;;16.70;99.90;;;;;;10021757;29;20513;-87
2022/10/28 17:29:49;;;;;;;17.47;13.13;;;17.10;99.90;;;;;;10019035;29;20237;-87
2022/10/28 17:34:52;;;;;;;21.03;13.47;;;17.30;99.90;;;;;;10022024;29;20246;-83
2022/10/28 17:39:55;;;;;;;19.07;13.87;;;17.60;99.90;;;;;;10013668;29;20261;-84
2022/10/28 17:44:58;;;;;;;26.70;15.63;;;17.90;99.90;;;;;;10051053;29;20253;-83
2022/10/28 17:50:01;;;;;;;20.27;14.80;;;17.80;99.90;;;;;;10024156;29;20276;-83
2022/10/28 17:55:04;;;;;;;23.67;15.20;;;17.80;99.90;;;;;;10013555;29;20237;-84
2022/10/28 18:00:07;;;;;;;33.00;17.13;;;18.00;99.90;;;;;;10051391;29;20240;-82
2022/10/28 18:05:12;;;;;;;23.00;14.93;;;17.90;99.90;;;;;;10052763;29;20324;-84
2022/10/28 18:10:15;;;;;;;24.70;15.50;;;17.70;99.90;;;;;;9992526;29;20230;-84
2022/10/28 18:15:18;;;;;;;22.83;15.53;;;17.60;99.90;;;;;;9997898;29;20245;-84
2022/10/28 18:20:20;;;;;;;20.50;14.77;;;17.90;99.90;;;;;;9997167;29;20238;-84
2022/10/28 18:25:23;;;;;;;21.37;14.97;;;17.80;99.90;;;;;;9977236;29;20254;-84
2022/10/28 18:30:25;;;;;;;20.40;15.27;;;17.80;99.90;;;;;;9976598;29;20318;-84
2022/10/28 18:35:28;;;;;;;23.63;15.30;;;17.80;99.90;;;;;;9997097;29;20241;-84
2022/10/28 18:40:31;;;;;;;19.83;14.57;;;17.80;99.90;;;;;;9992750;29;20237;-84
2022/10/28 18:45:33;;;;;;;20.37;14.60;;;17.70;99.90;;;;;;9966446;29;20254;-83
2022/10/28 18:50:36;;;;;;;24.63;14.07;;;18.00;99.90;;;;;;10034993;29;20217;-83
2022/10/28 18:55:38;;;;;;;16.53;13.00;;;18.00;99.90;;;;;;10028867;29;20272;-83
2022/10/28 19:00:41;;;;;;;18.73;13.53;;;17.90;99.90;;;;;;9995008;29;20306;-84
2022/10/28 19:05:43;;;;;;;18.77;13.63;;;18.30;99.90;;;;;;10003669;29;20285;-84
2022/10/28 19:10:47;;;;;;;16.90;13.27;;;18.40;99.90;;;;;;10036698;29;20229;-83
2022/10/28 19:15:50;;;;;;;36.97;22.37;;;18.30;99.90;;;;;;10014428;29;20219;-82
2022/10/28 19:20:56;;;;;;;40.67;23.43;;;15.70;99.90;;;;;;10008489;29;20243;-81
2022/10/28 19:25:59;;;;;;;42.53;24.63;;;13.50;99.90;;;;;;10021370;29;20609;-82
2022/10/28 19:31:04;;;;;;;40.83;24.70;;;13.30;99.90;;;;;;10029326;29;20246;-83
2022/10/28 19:36:13;;;;;;;41.67;23.00;;;12.80;99.90;;;;;;10017817;29;20198;-84
2022/10/28 19:41:18;;;;;;;36.83;24.40;;;12.90;99.90;;;;;;10001777;29;20632;-83
2022/10/28 19:46:21;;;;;;;46.60;25.77;;;12.80;99.90;;;;;;10018620;29;20260;-83
2022/10/28 19:51:26;;;;;;;18.50;13.83;;;12.80;99.90;;;;;;9688145;29;10000465;-83
2022/10/28 19:56:32;;;;;;;22.23;15.30;;;14.50;99.90;;;;;;10006590;29;20202;-84
2022/10/28 20:01:37;;;;;;;18.80;13.83;;;15.10;99.90;;;;;;10022860;29;20210;-83
2022/10/28 20:06:40;;;;;;;28.73;18.43;;;15.30;99.90;;;;;;9984445;29;20238;-83
2022/10/28 20:11:43;;;;;;;21.00;15.27;;;15.20;99.90;;;;;;9984504;29;20243;-82
2022/10/28 20:16:47;;;;;;;25.57;16.40;;;15.10;99.90;;;;;;10051776;29;20275;-83
2022/10/28 20:21:50;;;;;;;25.17;14.63;;;15.20;99.90;;;;;;9990072;29;20203;-83
2022/10/28 20:26:52;;;;;;;18.60;12.20;;;15.40;99.90;;;;;;9983001;29;20258;-83
2022/10/28 20:31:55;;;;;;;15.10;12.00;;;16.10;99.90;;;;;;10032201;29;20202;-85
2022/10/28 20:36:57;;;;;;;17.00;13.00;;;16.60;99.90;;;;;;10036408;29;20241;-83
2022/10/28 20:42:00;;;;;;;17.47;12.63;;;16.50;99.90;;;;;;10024416;29;20203;-83
2022/10/28 20:47:02;;;;;;;21.40;15.03;;;16.50;99.90;;;;;;10004392;29;20234;-82
2022/10/28 20:52:05;;;;;;;22.57;15.40;;;16.30;99.90;;;;;;10027954;29;20240;-84
2022/10/28 20:57:07;;;;;;;26.27;14.70;;;16.10;99.90;;;;;;10035685;29;20215;-83
2022/10/28 21:02:09;;;;;;;22.50;14.30;;;15.90;99.90;;;;;;10021708;29;20211;-83
2022/10/28 21:07:12;;;;;;;27.83;16.37;;;16.00;99.90;;;;;;10023962;29;20235;-83
2022/10/28 21:12:17;;;;;;;28.13;19.87;;;13.40;99.90;;;;;;9987516;29;20763;-82
2022/10/28 21:17:26;;;;;;;27.70;18.07;;;13.00;99.90;;;;;;10028916;29;20629;-83
2022/10/28 21:22:29;;;;;;;32.10;19.70;;;12.90;99.90;;;;;;10001612;29;20581;-83
2022/10/28 21:27:33;;;;;;;33.43;18.67;;;12.80;99.90;;;;;;10002500;29;20240;-83
2022/10/28 21:32:36;;;;;;;30.97;19.40;;;12.90;99.90;;;;;;10019332;29;20212;-83
2022/10/28 21:37:38;;;;;;;29.47;19.27;;;13.00;99.90;;;;;;10004051;29;20218;-83
2022/10/28 21:42:41;;;;;;;20.50;14.13;;;13.00;99.90;;;;;;10015337;29;20607;-82
2022/10/28 21:47:43;;;;;;;17.03;12.47;;;13.60;99.90;;;;;;9992029;29;20294;-81
2022/10/28 21:52:46;;;;;;;32.23;16.37;;;14.40;99.90;;;;;;10000647;29;20251;-82
2022/10/28 21:57:48;;;;;;;14.43;10.33;;;14.70;99.90;;;;;;9979907;29;20757;-82
2022/10/28 22:02:51;;;;;;;19.20;13.37;;;14.90;99.90;;;;;;10036605;29;20210;-82
2022/10/28 22:07:54;;;;;;;24.97;13.43;;;15.00;99.90;;;;;;10022498;29;20254;-82
2022/10/28 22:12:57;;;;;;;16.17;11.73;;;15.00;99.90;;;;;;10000990;29;20209;-82
2022/10/28 22:17:59;;;;;;;16.07;11.00;;;15.20;99.90;;;;;;10054598;29;20235;-82
2022/10/28 22:23:02;;;;;;;18.53;12.43;;;15.60;99.90;;;;;;10038950;29;20217;-82
2022/10/28 22:28:04;;;;;;;13.07;10.43;;;15.70;99.90;;;;;;10047367;29;20262;-83
2022/10/28 22:33:07;;;;;;;17.93;10.97;;;15.80;99.90;;;;;;10016800;29;20267;-82
2022/10/28 22:38:09;;;;;;;26.73;14.50;;;16.00;99.90;;;;;;10020104;29;20578;-82
2022/10/28 22:43:12;;;;;;;18.13;11.20;;;15.90;99.90;;;;;;10054506;29;20207;-82
2022/10/28 22:48:15;;;;;;;17.30;11.13;;;15.80;99.90;;;;;;10037009;29;20233;-82
2022/10/28 22:53:18;;;;;;;18.80;10.60;;;16.10;99.90;;;;;;10008170;29;20206;-83
2022/10/28 22:58:22;;;;;;;14.70;10.53;;;15.70;99.90;;;;;;10001608;29;20215;-82
2022/10/28 23:03:24;;;;;;;18.77;10.43;;;15.50;99.90;;;;;;10001015;29;20578;-82
2022/10/28 23:08:27;;;;;;;14.60;10.70;;;15.70;99.90;;;;;;10015730;29;20377;-82
2022/10/28 23:13:30;;;;;;;20.57;12.63;;;15.40;99.90;;;;;;10014808;29;20356;-82
2022/10/28 23:18:33;;;;;;;17.00;10.83;;;15.60;99.90;;;;;;9997840;29;20210;-82
2022/10/28 23:23:36;;;;;;;19.33;12.00;;;15.40;99.90;;;;;;10008882;29;20741;-82
2022/10/28 23:28:39;;;;;;;20.17;11.87;;;15.30;99.90;;;;;;9978109;29;20353;-81
2022/10/28 23:33:42;;;;;;;16.57;11.50;;;15.50;99.90;;;;;;9960400;29;20225;-82
2022/10/28 23:38:45;;;;;;;17.43;12.20;;;15.60;99.90;;;;;;9989640;29;20347;-83
2022/10/28 23:43:48;;;;;;;16.57;11.00;;;15.50;99.90;;;;;;9997043;29;20260;-83
2022/10/28 23:48:51;;;;;;;13.40;10.37;;;15.80;99.90;;;;;;9998157;29;20258;-83
2022/10/28 23:53:53;;;;;;;16.67;11.47;;;15.70;99.90;;;;;;10001766;29;20323;-83
2022/10/28 23:58:56;;;;;;;17.63;11.63;;;15.60;99.90;;;;;;10019087;29;20234;-83
